createdAt,value
2022-11-29T00:36:25.997Z,8.1
2022-11-29T01:46:30.510Z,8
2022-11-29T02:26:32.694Z,8.1
2022-11-29T02:36:33.504Z,8.1
2022-11-29T02:46:33.798Z,8.1
2022-11-29T02:56:34.329Z,8.1
2022-11-29T03:36:36.559Z,8
2022-11-29T03:46:37.546Z,7.9
2022-11-29T04:16:39.387Z,8
2022-11-29T04:26:40.253Z,7.9
2022-11-29T04:46:40.938Z,7.8
2022-11-29T05:26:44.239Z,7.7
2022-11-29T05:56:45.751Z,7.8
2022-11-29T06:06:46.617Z,7.8
2022-11-29T06:16:47.414Z,7.7
2022-11-29T06:26:48.001Z,7.7
2022-11-29T06:56:49.626Z,7.7
2022-11-29T07:26:55.196Z,7.6
2022-11-29T07:36:52.128Z,7.6
2022-11-29T08:26:55.084Z,7.7
2022-11-29T08:46:56.789Z,7.8
2022-11-29T09:06:57.979Z,8
2022-11-29T09:26:58.690Z,8.1
2022-11-29T09:47:00.156Z,8.1
2022-11-29T10:17:01.999Z,8.2
2022-11-29T10:47:07.961Z,8.1
2022-11-29T10:57:04.619Z,8.1
2022-11-29T11:17:06.358Z,7.9
2022-11-29T11:27:06.974Z,8
2022-11-29T11:37:08.064Z,8
2022-11-29T12:07:10.974Z,8.1
2022-11-29T12:17:14.314Z,8.1
2022-11-29T12:27:11.642Z,8.1
2022-11-29T12:37:12.041Z,8.2
2022-11-29T12:47:35.009Z,8.2
2022-11-29T13:07:13.530Z,8.5
2022-11-29T13:27:14.381Z,8.5
2022-11-29T13:37:14.796Z,8.5
2022-11-29T14:37:19.146Z,8.5
2022-11-29T14:47:20.018Z,8.6
2022-11-29T14:57:20.792Z,8.6
2022-11-29T15:07:21.297Z,8.5
2022-11-29T15:27:22.107Z,8.5
2022-11-29T15:47:23.115Z,8.5
2022-11-29T15:57:23.333Z,8.5
2022-11-29T16:27:25.194Z,8.3
2022-11-29T16:57:25.805Z,8.2
2022-11-29T17:17:32.288Z,8.1
2022-11-29T17:37:33.255Z,8.1
2022-11-29T18:07:34.362Z,7.9
2022-11-29T18:27:34.835Z,7.8
2022-11-29T19:07:36.833Z,7.7
2022-11-29T19:27:38.627Z,7.6
2022-11-29T19:37:39.387Z,7.7
2022-11-29T19:47:40.274Z,7.6
2022-11-29T20:07:41.526Z,7.6
2022-11-29T20:17:42.319Z,7.5
2022-11-29T20:27:42.578Z,7.5
2022-11-29T20:37:43.272Z,7.5
2022-11-29T20:47:44.306Z,7.5
2022-11-29T21:07:45.548Z,7.5
2022-11-29T21:17:46.399Z,7.5
2022-11-29T21:27:46.459Z,7.5
2022-11-29T21:47:48.482Z,7.5
2022-11-29T21:57:48.993Z,7.5
2022-11-29T22:07:49.940Z,7.5
2022-11-29T22:41:40.062Z,7.6
2022-11-29T22:51:02.714Z,7.6
2022-11-29T23:01:03.292Z,7.6
2022-11-29T23:11:03.859Z,7.6
2022-11-29T23:31:05.137Z,7.6
2022-11-29T23:41:05.377Z,7.6
2022-11-29T23:51:06.107Z,7.6
